Time;durP1;ratioP1;P1;durP2;ratioP2;P2;SDS_P1;SDS_P2;PMS_P1;PMS_P2;Temp;Humidity;BMP_temperature;BMP_pressure;BME280_temperature;BME280_humidity;BME280_pressure;Samples;Min_cycle;Max_cycle;Signal;HPM_P1;HPM_P2
2022/03/24 00:00:54;;;;;;;37.60;22.55;;;;;;;9.24;56.11;101811.28;4993835;28;104110;-50
2022/03/24 00:03:21;;;;;;;33.90;22.48;;;;;;;9.24;55.88;101814.00;4993226;28;102012;-50
2022/03/24 00:05:48;;;;;;;35.42;23.38;;;;;;;9.24;56.52;101811.28;4993394;28;102465;-49
2022/03/24 00:08:17;;;;;;;35.88;22.55;;;;;;;9.24;56.32;101808.59;4994250;28;102250;-50
2022/03/24 00:10:45;;;;;;;36.47;22.27;;;;;;;9.24;56.35;101811.28;4992923;28;103829;-50
2022/03/24 00:13:16;;;;;;;31.50;21.25;;;;;;;9.24;56.50;101803.16;4982018;28;102007;-49
2022/03/24 00:15:43;;;;;;;35.53;22.50;;;;;;;9.25;56.51;101801.25;4973833;28;102408;-49
2022/03/24 00:18:10;;;;;;;31.55;20.80;;;;;;;9.24;56.99;101802.31;4974580;28;102165;-49
2022/03/24 00:20:37;;;;;;;33.13;22.40;;;;;;;9.23;56.05;101798.78;4979086;28;103717;-49
2022/03/24 00:23:03;;;;;;;33.33;21.10;;;;;;;9.24;56.48;101800.44;4992389;28;102219;-50
2022/03/24 00:25:30;;;;;;;34.20;21.27;;;;;;;9.24;56.17;101792.28;4993445;28;101806;-49
2022/03/24 00:28:00;;;;;;;30.40;20.38;;;;;;;9.23;56.36;101793.34;4994688;28;102131;-49
2022/03/24 00:30:27;;;;;;;32.15;21.00;;;;;;;9.23;56.44;101784.34;4993430;28;103955;-50
2022/03/24 00:32:55;;;;;;;31.08;20.45;;;;;;;9.24;56.36;101777.88;4990590;28;102771;-49
2022/03/24 00:35:23;;;;;;;33.47;20.55;;;;;;;9.23;57.34;101774.34;4992204;28;102448;-49
2022/03/24 00:37:52;;;;;;;30.98;20.58;;;;;;;9.22;56.14;101761.81;4994103;28;102208;-49
2022/03/24 00:40:19;;;;;;;27.50;19.27;;;;;;;9.22;56.50;101764.53;4993151;28;103903;-50
2022/03/24 00:42:45;;;;;;;31.98;20.50;;;;;;;9.24;56.15;101761.59;4991600;28;102253;-49
2022/03/24 00:45:12;;;;;;;30.10;20.38;;;;;;;9.23;56.94;101763.47;4993245;28;101986;-49
2022/03/24 00:47:42;;;;;;;30.60;20.63;;;;;;;9.23;56.30;101755.34;4993865;28;102672;-50
2022/03/24 00:50:09;;;;;;;;;;;;;;;9.22;56.22;101753.66;4993539;28;104103;-50
2022/03/24 00:52:41;;;;;;;29.85;19.15;;;;;;;9.23;56.80;101759.91;4991968;28;102338;-50
2022/03/24 00:55:11;;;;;;;31.30;20.10;;;;;;;9.22;56.90;101750.94;4993115;28;102308;-50
2022/03/24 00:57:38;;;;;;;29.98;19.52;;;;;;;9.22;56.33;101737.34;4993753;28;102090;-49
2022/03/24 01:00:06;;;;;;;29.20;19.80;;;;;;;9.23;56.34;101738.19;4992344;28;103853;-50
2022/03/24 01:02:36;;;;;;;29.55;20.40;;;;;;;9.22;56.47;101725.66;4985147;28;102123;-50
2022/03/24 01:05:06;;;;;;;32.80;20.02;;;;;;;9.21;56.40;101733.00;4986034;28;101940;-49
2022/03/24 01:07:34;;;;;;;29.55;19.50;;;;;;;9.22;56.25;101726.50;4984232;28;102344;-50
2022/03/24 01:10:01;;;;;;;30.20;19.45;;;;;;;9.22;56.50;101726.50;4987483;28;103900;-50
2022/03/24 01:12:29;;;;;;;29.35;18.75;;;;;;;9.22;56.85;101721.06;4978131;28;101949;-50
2022/03/24 01:14:56;;;;;;;28.60;19.50;;;;;;;9.22;57.00;101721.06;4975824;28;102522;-50
2022/03/24 01:17:26;;;;;;;28.65;19.63;;;;;;;9.22;56.41;101721.06;4992061;28;102126;-50
2022/03/24 01:19:53;;;;;;;28.00;19.23;;;;;;;9.22;56.82;101710.19;4974402;28;103873;-51
2022/03/24 01:22:21;;;;;;;28.60;18.30;;;;;;;9.23;56.43;101702.88;4984982;28;102048;-50
2022/03/24 01:24:48;;;;;;;31.10;18.98;;;;;;;9.22;56.74;101704.75;4992224;28;101955;-50
2022/03/24 01:27:18;;;;;;;29.70;18.25;;;;;;;9.22;56.33;101704.75;4992112;28;102548;-50
2022/03/24 01:29:45;;;;;;;26.58;17.48;;;;;;;9.22;57.07;101704.75;4987507;28;103995;-49
2022/03/24 01:32:12;;;;;;;28.23;18.92;;;;;;;9.22;56.41;101698.50;4990957;28;102008;-50
2022/03/24 01:34:38;;;;;;;27.75;18.42;;;;;;;9.22;56.38;101699.34;4988336;28;102422;-51
2022/03/24 01:37:08;;;;;;;27.52;18.27;;;;;;;9.22;56.86;101688.47;4992982;28;102321;-50
2022/03/24 01:39:36;;;;;;;25.15;17.52;;;;;;;9.22;57.41;101684.94;4991741;28;104165;-50
2022/03/24 01:42:05;;;;;;;28.75;18.77;;;;;;;9.21;56.37;101677.84;4991115;28;102380;-50
2022/03/24 01:44:31;;;;;;;26.37;17.60;;;;;;;9.22;57.24;101683.03;4991859;28;102159;-50
2022/03/24 01:47:00;;;;;;;28.58;17.75;;;;;;;9.20;56.36;101674.31;4992489;28;102416;-50
2022/03/24 01:49:28;;;;;;;27.02;18.02;;;;;;;9.21;56.78;101675.97;4990962;28;104028;-51
2022/03/24 01:51:56;;;;;;;24.67;16.83;;;;;;;9.21;56.99;101673.25;4978919;28;102309;-50
2022/03/24 01:54:27;;;;;;;26.63;17.60;;;;;;;9.20;57.13;101666.16;4991801;28;101955;-50
2022/03/24 01:56:57;;;;;;;25.38;16.67;;;;;;;9.21;56.58;101659.66;4990343;28;102048;-50
2022/03/24 01:59:24;;;;;;;;;;;;;;;9.21;56.29;101669.72;4992163;28;103851;-50
2022/03/24 02:01:51;;;;;;;26.38;16.92;;;;;;;9.20;57.08;101660.75;4990515;28;102429;-49
2022/03/24 02:04:19;;;;;;;26.40;17.05;;;;;;;9.20;56.19;101663.47;4991727;28;102473;-49
2022/03/24 02:06:46;;;;;;;25.13;16.23;;;;;;;9.20;56.32;101668.88;4993127;28;102243;-49
2022/03/24 02:09:16;;;;;;;23.50;16.10;;;;;;;9.21;56.92;101667.00;4991491;28;103741;-49
2022/03/24 02:11:43;;;;;;;24.45;16.27;;;;;;;9.20;56.44;101658.03;4988280;28;102648;-50
2022/03/24 02:14:12;;;;;;;23.23;15.57;;;;;;;9.20;56.66;101655.31;4986200;28;102139;-49
2022/03/24 02:16:41;;;;;;;25.90;16.35;;;;;;;9.20;57.01;101662.63;4972751;28;102384;-50
2022/03/24 02:19:10;;;;;;;21.83;15.85;;;;;;;9.21;56.60;101667.00;4971062;28;103980;-49
2022/03/24 02:21:38;;;;;;;;;;;;;;;9.19;56.98;101661.78;4974956;28;102514;-50
2022/03/24 02:24:12;;;;;;;23.55;15.57;;;;;;;9.21;56.57;101659.66;4990088;28;102567;-50
2022/03/24 02:26:42;;;;;;;22.50;15.15;;;;;;;9.19;56.44;101645.50;4992274;28;102389;-50
2022/03/24 02:29:10;;;;;;;22.85;15.15;;;;;;;9.20;56.65;101651.78;4989814;28;103934;-50
2022/03/24 02:31:42;;;;;;;22.05;14.93;;;;;;;9.20;57.36;101647.16;4989644;28;102352;-50
2022/03/24 02:36:55;;;;;;;24.95;16.23;;;;;;;9.19;57.07;101637.34;4990769;28;102397;-50
2022/03/24 02:39:24;;;;;;;21.52;15.18;;;;;;;9.18;56.26;101641.13;4991030;28;103658;-49
2022/03/24 02:41:52;;;;;;;20.75;14.82;;;;;;;9.20;56.99;101636.28;4990998;28;102637;-50
2022/03/24 02:44:22;;;;;;;20.80;14.73;;;;;;;9.19;56.32;101640.06;4985620;28;101975;-49
2022/03/24 02:46:49;;;;;;;;;;;;;;;9.19;57.15;101628.38;4992173;28;102844;-50
2022/03/24 02:49:16;;;;;;;20.95;14.40;;;;;;;9.18;57.15;101632.97;4989782;28;105053;-49
2022/03/24 02:51:43;;;;;;;20.13;14.60;;;;;;;9.19;57.05;101628.38;4979262;28;102238;-50
2022/03/24 02:54:11;;;;;;;20.00;14.52;;;;;;;9.19;56.56;101623.75;4977717;28;102173;-50
2022/03/24 02:56:42;;;;;;;22.40;15.27;;;;;;;9.19;57.29;101628.38;4991825;28;102613;-50
2022/03/24 02:59:10;;;;;;;22.58;14.88;;;;;;;9.18;57.51;101622.13;4988801;28;103932;-50
2022/03/24 03:01:42;;;;;;;21.15;14.43;;;;;;;9.18;56.58;101622.13;4989708;28;102483;-49
2022/03/24 03:04:09;;;;;;;19.08;13.70;;;;;;;9.18;57.40;101624.84;4978700;28;101864;-50
2022/03/24 03:06:39;;;;;;;21.42;14.77;;;;;;;9.19;56.91;101615.59;4973048;28;102420;-49
2022/03/24 03:09:07;;;;;;;20.35;13.70;;;;;;;9.18;56.95;101624.84;4987227;28;103921;-49
2022/03/24 03:11:35;;;;;;;21.00;14.30;;;;;;;9.18;56.59;101613.97;4990179;28;102902;-49
2022/03/24 03:14:03;;;;;;;20.98;14.30;;;;;;;9.17;57.04;101616.94;4989836;28;102048;-50
2022/03/24 03:16:31;;;;;;;21.10;13.82;;;;;;;9.19;57.08;101617.50;4989367;28;102307;-49
2022/03/24 03:18:58;;;;;;;21.73;14.05;;;;;;;9.17;57.36;101612.31;4985903;28;103930;-49
2022/03/24 03:21:27;;;;;;;18.77;13.20;;;;;;;9.18;56.92;101616.69;4988206;28;102464;-49
2022/03/24 03:23:54;;;;;;;19.00;12.60;;;;;;;9.18;57.33;101611.25;4979235;28;102332;-49
2022/03/24 03:26:23;;;;;;;18.73;13.40;;;;;;;9.18;56.99;101605.00;4977497;28;102255;-49
2022/03/24 03:28:52;;;;;;;19.17;13.32;;;;;;;9.17;56.77;101603.34;4990493;28;104179;-50
2022/03/24 03:31:23;;;;;;;19.73;13.30;;;;;;;9.16;56.64;101602.53;4981372;28;102195;-50
2022/03/24 03:33:51;;;;;;;;;;;;;;;9.17;57.00;101604.19;4975687;28;102015;-50
2022/03/24 03:36:18;;;;;;;18.77;13.63;;;;;;;9.17;57.44;101601.47;4992364;28;102574;-49
2022/03/24 03:38:46;;;;;;;18.95;13.63;;;;;;;9.18;57.18;101594.97;4989411;28;104011;-50
2022/03/24 03:41:14;;;;;;;18.02;13.70;;;;;;;9.17;57.46;101592.50;4994853;28;102328;-49
2022/03/24 03:43:42;;;;;;;17.55;12.15;;;;;;;9.16;57.55;101597.09;4991096;28;102433;-49
2022/03/24 03:46:08;;;;;;;18.63;13.07;;;;;;;9.16;56.64;101591.69;4976109;28;102321;-50
2022/03/24 03:48:37;;;;;;;17.70;12.63;;;;;;;9.15;56.64;101590.00;4988533;28;103867;-49
2022/03/24 03:51:04;;;;;;;18.20;12.70;;;;;;;9.17;57.01;101593.31;4994677;28;102424;-49
2022/03/24 03:53:32;;;;;;;17.80;13.02;;;;;;;9.17;57.17;101592.50;4993397;28;102593;-49
2022/03/24 03:55:58;;;;;;;18.00;12.02;;;;;;;9.15;57.13;101596.25;4995327;28;102190;-50
2022/03/24 03:58:25;;;;;;;17.65;12.38;;;;;;;9.15;56.84;101590.81;4992302;28;103897;-50
2022/03/24 04:00:52;;;;;;;17.23;13.05;;;;;;;9.16;57.52;101580.81;4994008;28;102136;-50
2022/03/24 04:03:19;;;;;;;16.98;12.35;;;;;;;9.15;56.66;101573.72;4974188;28;102333;-49
2022/03/24 04:05:47;;;;;;;15.98;12.32;;;;;;;9.17;56.56;101584.34;4984235;28;102399;-49
2022/03/24 04:08:13;;;;;;;16.40;11.98;;;;;;;9.16;56.71;101580.81;4992201;28;104032;-49
2022/03/24 04:10:44;;;;;;;16.38;12.50;;;;;;;9.17;56.75;101590.59;4993732;28;102498;-50
2022/03/24 04:13:11;;;;;;;17.83;12.27;;;;;;;9.16;57.18;101591.69;4985493;28;102050;-49
2022/03/24 04:15:51;;;;;;;15.52;11.38;;;;;;;9.16;57.01;101586.25;4974934;28;102413;-49
2022/03/24 04:18:18;;;;;;;17.30;11.98;;;;;;;9.16;57.53;101580.81;4985689;28;104028;-49
2022/03/24 04:20:56;;;;;;;17.27;12.75;;;;;;;9.16;57.55;101575.38;4992454;28;102151;-50
2022/03/24 04:23:22;;;;;;;17.73;12.85;;;;;;;9.15;57.06;101573.72;4976146;28;102286;-49
2022/03/24 04:25:49;;;;;;;17.92;12.30;;;;;;;9.16;57.51;101564.53;4975146;28;102656;-50
2022/03/24 04:28:16;;;;;;;15.98;11.57;;;;;;;9.15;56.73;101569.09;4983140;28;103899;-50
2022/03/24 04:30:45;;;;;;;16.23;12.13;;;;;;;9.17;57.41;101563.44;4976436;28;102384;-50
2022/03/24 04:33:12;;;;;;;16.30;11.73;;;;;;;9.16;56.86;101559.09;4989714;28;102538;-49
2022/03/24 04:35:39;;;;;;;16.95;11.55;;;;;;;9.16;57.09;101561.81;4979864;28;102263;-49
2022/03/24 04:38:08;;;;;;;15.77;12.63;;;;;;;9.16;56.93;101559.09;4973986;28;103901;-50
2022/03/24 04:40:36;;;;;;;17.05;12.07;;;;;;;9.16;57.18;101553.66;4975744;28;102570;-50
2022/03/24 04:43:05;;;;;;;17.08;12.52;;;;;;;9.17;57.40;101555.28;4993819;28;102452;-49
2022/03/24 04:45:35;;;;;;;15.73;12.02;;;;;;;9.18;57.66;101553.41;4976757;28;102378;-49
2022/03/24 04:48:02;;;;;;;17.13;11.57;;;;;;;9.18;57.14;101554.22;4973054;28;103812;-51
2022/03/24 04:50:29;;;;;;;16.40;12.18;;;;;;;9.19;57.27;101542.28;4978433;28;102293;-50
2022/03/24 04:52:57;;;;;;;20.38;13.27;;;;;;;9.20;57.37;101549.38;4973205;28;102337;-50
2022/03/24 04:55:25;;;;;;;17.63;13.38;;;;;;;9.21;57.14;101544.78;4974215;28;102689;-50
2022/03/24 04:57:55;;;;;;;22.17;15.93;;;;;;;9.21;57.49;101542.88;4972628;28;104078;-50
2022/03/24 05:00:24;;;;;;;24.55;17.05;;;;;;;9.22;56.88;101541.81;4985003;28;102914;-50
2022/03/24 05:02:51;;;;;;;26.98;18.50;;;;;;;9.23;57.43;101537.19;4991676;28;101809;-50
2022/03/24 05:05:18;;;;;;;28.80;19.50;;;;;;;9.24;56.68;101536.97;4981289;28;102576;-50
2022/03/24 05:07:44;;;;;;;28.35;19.42;;;;;;;9.26;57.38;101542.16;4992142;28;103869;-50
2022/03/24 05:10:11;;;;;;;29.85;19.73;;;;;;;9.27;57.22;101531.06;4972833;28;102221;-49
2022/03/24 05:12:40;;;;;;;26.35;18.52;;;;;;;9.29;57.52;101537.06;4985167;28;102692;-49
2022/03/24 05:15:09;;;;;;;27.27;18.45;;;;;;;9.30;57.40;101538.69;4979362;28;102809;-50
2022/03/24 05:17:37;;;;;;;25.92;18.83;;;;;;;9.30;57.15;101530.53;4975750;28;102963;-49
2022/03/24 05:20:05;;;;;;;28.25;18.88;;;;;;;9.33;57.02;101535.50;4972886;28;102112;-50
2022/03/24 05:22:36;;;;;;;25.80;18.80;;;;;;;9.33;56.81;101527.34;4972639;28;102365;-50
2022/03/24 05:25:07;;;;;;;27.10;18.58;;;;;;;9.35;56.52;101533.38;4974000;28;102853;-49
2022/03/24 05:27:35;;;;;;;25.00;18.67;;;;;;;9.36;56.42;101524.16;4988629;28;103663;-49
2022/03/24 05:30:03;;;;;;;26.63;18.17;;;;;;;9.38;56.75;101532.88;4979129;28;102374;-49
2022/03/24 05:32:31;;;;;;;25.48;17.58;;;;;;;9.38;56.48;101524.75;4987000;28;102344;-49
2022/03/24 05:34:58;;;;;;;24.75;17.20;;;;;;;9.41;57.07;101522.59;4979816;28;102154;-51
2022/03/24 05:37:25;;;;;;;23.83;16.08;;;;;;;9.41;56.30;101528.84;4992346;28;104109;-50
2022/03/24 05:39:51;;;;;;;24.92;17.20;;;;;;;9.41;57.01;101511.72;4991825;28;102763;-50
2022/03/24 05:42:18;;;;;;;23.67;15.23;;;;;;;9.44;56.89;101516.66;4989590;28;102436;-51
2022/03/24 05:44:46;;;;;;;21.95;15.25;;;;;;;9.44;57.03;101516.66;4981306;28;102435;-50
2022/03/24 05:47:14;;;;;;;21.98;16.02;;;;;;;9.44;56.17;101516.66;4971761;28;103778;-51
2022/03/24 05:49:41;;;;;;;19.40;14.93;;;;;;;9.45;57.09;101512.88;4975320;28;102457;-50
2022/03/24 05:52:08;;;;;;;24.60;15.30;;;;;;;9.46;56.45;101509.13;4992270;28;102298;-49
2022/03/24 05:54:35;;;;;;;23.77;16.20;;;;;;;9.46;56.99;101511.84;4992717;28;102173;-49
2022/03/24 05:57:03;;;;;;;20.85;15.52;;;;;;;9.46;56.98;101503.69;4991822;28;103934;-49
2022/03/24 05:59:30;;;;;;;21.70;15.07;;;;;;;9.47;56.78;101505.31;4996420;28;102419;-49
2022/03/24 06:01:57;;;;;;;22.80;15.32;;;;;;;9.48;56.42;101504.25;4993325;28;102651;-49
2022/03/24 06:04:27;;;;;;;24.02;16.45;;;;;;;9.48;56.32;101496.09;4992668;28;102081;-49
2022/03/24 06:06:56;;;;;;;25.33;15.93;;;;;;;9.48;57.00;101490.66;4995821;28;102932;-50
2022/03/24 06:09:23;;;;;;;23.55;16.30;;;;;;;9.48;56.85;101491.47;4972358;28;102401;-50
2022/03/24 06:11:52;;;;;;;24.27;16.08;;;;;;;9.48;56.63;101498.81;4978411;28;102699;-49
2022/03/24 06:14:20;;;;;;;23.85;16.35;;;;;;;9.49;56.87;101492.31;4985692;28;103593;-49
2022/03/24 06:16:47;;;;;;;22.42;14.68;;;;;;;9.48;56.62;101486.03;4988383;28;103811;-49
2022/03/24 06:19:14;;;;;;;21.75;15.27;;;;;;;9.50;55.91;101483.09;4990471;28;101973;-49
2022/03/24 06:21:55;;;;;;;23.05;16.17;;;;;;;9.50;55.86;101478.47;4986578;28;102667;-49
2022/03/24 06:24:21;;;;;;;22.25;15.25;;;;;;;9.50;56.39;101483.09;4987016;28;102601;-50
2022/03/24 06:26:49;;;;;;;21.80;14.15;;;;;;;9.50;56.53;101475.75;4985923;28;103953;-49
2022/03/24 06:29:16;;;;;;;21.35;14.80;;;;;;;9.50;56.22;101477.66;4988151;28;102744;-50
2022/03/24 06:31:43;;;;;;;21.23;14.57;;;;;;;9.51;56.42;101473.88;4990106;28;102567;-49
2022/03/24 06:34:10;;;;;;;20.85;14.40;;;;;;;9.52;56.13;101475.50;4989075;28;102484;-49
2022/03/24 06:36:36;;;;;;;21.90;14.48;;;;;;;9.53;56.04;101466.31;4985976;28;103911;-50
2022/03/24 06:39:05;;;;;;;20.40;14.30;;;;;;;9.54;55.99;101467.94;4989469;28;102575;-49
2022/03/24 06:41:34;;;;;;;21.20;14.52;;;;;;;9.55;56.05;101473.13;4988448;28;102021;-49
2022/03/24 06:44:04;;;;;;;24.67;14.23;;;;;;;9.56;56.68;101468.53;4996646;28;102237;-50
2022/03/24 06:46:32;;;;;;;20.73;13.93;;;;;;;9.56;56.29;101460.38;4997850;28;103987;-51
2022/03/24 06:49:00;;;;;;;18.80;13.57;;;;;;;9.57;56.42;101462.03;4991709;28;102502;-50
2022/03/24 06:51:28;;;;;;;19.15;13.98;;;;;;;9.58;56.83;101452.78;4990368;28;102736;-49
2022/03/24 06:53:54;;;;;;;24.05;14.50;;;;;;;9.61;56.95;101452.31;4989116;28;102418;-50
2022/03/24 06:56:23;;;;;;;18.77;13.77;;;;;;;9.62;56.80;101449.31;4990536;28;104096;-49
2022/03/24 06:58:50;;;;;;;23.60;14.20;;;;;;;9.65;56.39;101448.00;4988522;28;102601;-49
2022/03/24 07:01:17;;;;;;;19.85;13.02;;;;;;;9.66;56.43;101449.66;4993081;28;102515;-49
2022/03/24 07:03:44;;;;;;;21.95;13.18;;;;;;;9.70;56.59;101450.84;4988756;28;102517;-50
2022/03/24 07:06:11;;;;;;;19.98;13.43;;;;;;;9.69;56.95;101443.72;4975550;28;103954;-50
2022/03/24 07:08:39;;;;;;;18.02;12.90;;;;;;;9.72;56.39;101447.84;4990763;28;102923;-49
2022/03/24 07:11:10;;;;;;;21.58;13.70;;;;;;;9.73;56.50;101438.63;4971509;28;102322;-50
2022/03/24 07:13:38;;;;;;;16.85;12.50;;;;;;;9.73;56.14;101435.91;4989816;28;102713;-50
2022/03/24 07:16:20;;;;;;;18.17;12.27;;;;;;;9.74;57.04;101441.09;4981592;28;104107;-50
2022/03/24 07:18:48;;;;;;;16.27;12.32;;;;;;;9.77;56.44;101428.91;4989277;28;102012;-50
2022/03/24 07:21:19;;;;;;;15.93;12.35;;;;;;;9.78;56.17;101431.38;4986995;28;102076;-49
2022/03/24 07:23:46;;;;;;;17.52;12.13;;;;;;;9.80;56.70;101425.69;4974236;28;102292;-50
2022/03/24 07:26:14;;;;;;;15.48;11.75;;;;;;;9.81;56.78;101421.91;4977016;28;103861;-49
2022/03/24 07:28:43;;;;;;;19.45;12.40;;;;;;;9.81;56.93;101425.47;4987735;28;102440;-50
2022/03/24 07:31:11;;;;;;;15.60;12.32;;;;;;;9.83;56.38;101428.72;4989946;28;103625;-49
2022/03/24 07:33:38;;;;;;;17.40;11.75;;;;;;;9.84;56.55;101427.69;4989466;28;102497;-49
2022/03/24 07:36:06;;;;;;;16.23;11.70;;;;;;;9.85;56.66;101421.16;4973862;28;103913;-50
2022/03/24 07:38:34;;;;;;;17.00;12.05;;;;;;;9.86;56.25;101425.50;4970740;28;102465;-50
2022/03/24 07:41:02;;;;;;;15.82;11.32;;;;;;;9.86;56.75;101420.09;4970332;28;102554;-50
2022/03/24 07:43:28;;;;;;;15.90;11.43;;;;;;;9.89;57.03;101415.22;4977368;28;102173;-50
2022/03/24 07:45:56;;;;;;;16.75;10.75;;;;;;;9.90;56.40;101414.16;4988730;28;103819;-49
2022/03/24 07:48:25;;;;;;;15.25;10.90;;;;;;;9.90;56.46;101406.00;4983436;28;102403;-50
2022/03/24 07:50:55;;;;;;;16.70;11.45;;;;;;;9.92;57.10;101417.41;4969730;28;102010;-50
2022/03/24 07:53:51;;;;;;;15.60;10.77;;;;;;;9.92;56.91;101415.56;4982139;28;102376;-50
2022/03/24 07:56:21;;;;;;;14.50;10.45;;;;;;;9.93;56.48;101416.38;4989813;28;104045;-51
2022/03/24 07:58:48;;;;;;;17.33;11.50;;;;;;;9.93;56.36;101405.50;4986649;28;102121;-50
2022/03/24 08:01:24;;;;;;;16.55;11.40;;;;;;;9.94;56.65;101404.41;4992175;28;102821;-50
2022/03/24 08:03:53;;;;;;;14.95;10.98;;;;;;;9.95;56.75;101403.34;4987205;28;102326;-50
2022/03/24 08:06:20;;;;;;;16.38;11.68;;;;;;;9.96;56.56;101394.94;4990945;28;103911;-50
2022/03/24 08:08:47;;;;;;;15.88;10.88;;;;;;;9.97;56.91;101390.31;4991049;28;102350;-49
2022/03/24 08:11:15;;;;;;;15.07;10.48;;;;;;;9.98;56.97;101391.97;4991368;28;102403;-49
2022/03/24 08:13:42;;;;;;;14.70;10.73;;;;;;;9.99;56.13;101388.16;4991962;28;101951;-49
2022/03/24 08:16:12;;;;;;;14.63;10.32;;;;;;;9.99;57.07;101388.16;4990926;28;104092;-50
2022/03/24 08:18:40;;;;;;;14.48;10.20;;;;;;;10.00;56.69;101385.22;4993372;28;102449;-49
2022/03/24 08:21:08;;;;;;;15.95;10.30;;;;;;;10.02;57.16;101374.06;4993050;28;102389;-49
2022/03/24 08:23:36;;;;;;;14.75;10.55;;;;;;;10.02;56.63;101374.06;4983012;28;102178;-49
2022/03/24 08:26:05;;;;;;;14.55;10.50;;;;;;;10.02;56.67;101372.16;4991915;28;104064;-50
2022/03/24 08:28:35;;;;;;;15.20;10.32;;;;;;;10.05;56.64;101365.41;4979545;28;102163;-49
2022/03/24 08:31:02;;;;;;;12.80;9.65;;;;;;;10.04;56.79;101363.78;4990070;28;101847;-50
2022/03/24 08:33:29;;;;;;;14.60;10.18;;;;;;;10.05;56.78;101366.22;4983695;28;102391;-50
2022/03/24 08:35:59;;;;;;;14.43;10.30;;;;;;;10.06;56.73;101358.88;4989486;28;103886;-50
2022/03/24 08:38:26;;;;;;;11.50;9.40;;;;;;;10.07;56.44;101357.84;4991214;28;102581;-50
2022/03/24 08:40:52;;;;;;;13.48;9.20;;;;;;;10.07;56.59;101357.84;4992769;28;102215;-49
2022/03/24 08:43:19;;;;;;;13.02;9.80;;;;;;;10.08;57.05;101359.47;4988151;28;102377;-49
2022/03/24 08:45:47;;;;;;;12.63;9.30;;;;;;;10.09;57.00;101350.22;4972572;28;103753;-49
2022/03/24 08:48:14;;;;;;;12.73;9.63;;;;;;;10.08;56.51;101354.84;4981433;28;101878;-49
2022/03/24 08:50:41;;;;;;;13.20;9.43;;;;;;;10.09;56.28;101348.31;4983067;28;102298;-49
2022/03/24 08:53:09;;;;;;;13.85;9.40;;;;;;;10.09;56.42;101344.78;4981246;28;102149;-49
2022/03/24 08:55:38;;;;;;;12.30;8.80;;;;;;;10.09;56.60;101339.34;4974663;28;104231;-49
2022/03/24 08:58:04;;;;;;;11.80;9.05;;;;;;;10.09;56.37;101337.44;4980448;28;102730;-50
2022/03/24 09:00:32;;;;;;;14.43;9.63;;;;;;;10.10;56.75;101341.84;4987588;28;102188;-51
2022/03/24 09:02:59;;;;;;;13.43;8.93;;;;;;;10.11;56.13;101339.94;4996657;28;102177;-50
2022/03/24 09:05:26;;;;;;;12.95;9.13;;;;;;;10.11;56.77;101342.66;4992474;28;103812;-49
2022/03/24 09:07:53;;;;;;;11.88;8.75;;;;;;;10.11;56.73;101334.50;4992472;28;101964;-49
2022/03/24 09:10:22;;;;;;;10.85;8.40;;;;;;;10.12;56.29;101327.97;4986818;28;102594;-50
2022/03/24 09:12:49;;;;;;;12.77;8.98;;;;;;;10.11;56.60;101327.16;4987654;28;102218;-49
2022/03/24 09:15:18;;;;;;;13.27;9.18;;;;;;;10.13;56.35;101329.59;4972636;28;103992;-49
2022/03/24 09:17:45;;;;;;;12.95;9.60;;;;;;;10.13;56.72;101329.59;4983409;28;102069;-49
2022/03/24 09:20:23;;;;;;;14.52;8.98;;;;;;;10.12;56.54;101327.97;4973209;28;101971;-53
2022/03/24 09:22:50;;;;;;;11.82;9.25;;;;;;;10.12;56.36;101319.81;4993199;28;102136;-50
2022/03/24 09:25:19;;;;;;;10.57;8.10;;;;;;;10.13;56.84;101318.72;4988764;28;103985;-50
2022/03/24 09:27:47;;;;;;;;;;;;;;;10.14;56.76;101312.22;4989510;28;102286;-49
2022/03/24 09:30:18;;;;;;;9.48;7.60;;;;;;;10.14;56.98;101306.78;4991837;28;102280;-49
2022/03/24 09:32:47;;;;;;;12.07;8.50;;;;;;;10.13;55.93;101302.41;4992785;28;102521;-49
2022/03/24 09:35:15;;;;;;;10.93;7.90;;;;;;;10.14;56.53;101306.78;4983752;28;103820;-50
2022/03/24 09:37:43;;;;;;;11.05;8.55;;;;;;;10.14;56.47;101295.91;4973307;28;102435;-50
2022/03/24 09:40:11;;;;;;;12.23;8.82;;;;;;;10.14;56.58;101301.34;4983172;28;102356;-51
2022/03/24 09:42:39;;;;;;;11.02;7.95;;;;;;;10.15;56.25;101289.38;4992629;28;102551;-50
2022/03/24 09:45:11;;;;;;;11.07;8.38;;;;;;;10.15;57.12;101292.09;4971747;28;104109;-49
2022/03/24 09:47:38;;;;;;;11.43;8.07;;;;;;;10.15;56.42;101294.81;4972705;28;102248;-50
2022/03/24 09:50:07;;;;;;;9.98;7.45;;;;;;;10.15;56.43;101289.38;4985813;28;102435;-50
2022/03/24 09:52:33;;;;;;;13.50;8.30;;;;;;;10.16;56.53;101284.75;4992354;28;102436;-49
2022/03/24 09:55:00;;;;;;;10.90;7.60;;;;;;;10.14;56.77;101276.88;4990930;28;103513;-49
2022/03/24 09:57:27;;;;;;;9.90;7.95;;;;;;;10.15;56.19;101270.34;4992176;28;102299;-49
2022/03/24 09:59:55;;;;;;;12.37;8.27;;;;;;;10.14;56.81;101276.88;4993433;28;102182;-49
2022/03/24 10:02:24;;;;;;;10.82;8.05;;;;;;;10.14;57.06;101271.44;4985792;28;102450;-49
2022/03/24 10:04:53;;;;;;;13.20;8.57;;;;;;;10.15;56.66;101273.06;4972208;28;103806;-50
2022/03/24 10:07:23;;;;;;;13.18;7.78;;;;;;;10.15;56.47;101264.09;4973246;28;102270;-50
2022/03/24 10:29:02;;;;;;;11.00;7.20;;;;;;;10.12;56.44;101235.50;4987616;28;103677;-50
2022/03/24 10:31:33;;;;;;;10.52;6.82;;;;;;;10.11;57.10;101236.59;4985327;28;103502;-50
2022/03/24 10:34:01;;;;;;;9.45;7.30;;;;;;;10.10;56.74;101233.03;4993964;28;104770;-50
2022/03/24 10:36:28;;;;;;;14.43;7.82;;;;;;;10.11;57.03;101228.44;4988998;28;102876;-50
2022/03/24 10:39:00;;;;;;;9.53;7.10;;;;;;;10.11;55.99;101226.53;4995001;28;102328;-50
2022/03/24 10:41:29;;;;;;;10.18;7.28;;;;;;;10.10;56.52;101214.00;4999090;28;104077;-49
2022/03/24 10:43:57;;;;;;;9.05;6.82;;;;;;;10.10;56.44;101213.19;4998941;28;102490;-49
2022/03/24 10:46:27;;;;;;;11.20;7.43;;;;;;;10.09;56.74;101206.09;4985989;28;102208;-50
2022/03/24 10:48:57;;;;;;;11.10;7.50;;;;;;;10.10;56.79;101218.63;4977642;28;102487;-49
2022/03/24 10:51:25;;;;;;;10.48;7.32;;;;;;;10.09;56.66;101206.09;4979919;28;104393;-49
2022/03/24 10:53:55;;;;;;;12.85;7.03;;;;;;;10.09;56.40;101208.81;4990972;28;102374;-50
2022/03/24 10:56:29;;;;;;;10.88;6.88;;;;;;;10.09;56.79;101197.94;4992999;28;102464;-49
2022/03/24 10:58:58;;;;;;;10.02;6.85;;;;;;;10.08;56.24;101191.69;4985295;28;102003;-50
2022/03/24 11:01:29;;;;;;;10.77;7.60;;;;;;;10.08;56.19;101186.25;4990796;28;103863;-50
2022/03/24 11:03:56;;;;;;;9.93;7.40;;;;;;;10.08;56.53;101177.25;4991693;28;102296;-50
2022/03/24 11:06:23;;;;;;;9.88;7.45;;;;;;;10.08;56.45;101179.97;4977420;28;102593;-51
2022/03/24 11:08:52;;;;;;;12.17;7.57;;;;;;;10.07;55.90;101181.06;4992047;28;102559;-50
2022/03/24 11:11:21;;;;;;;9.65;6.72;;;;;;;10.07;56.37;101171.00;4983338;28;103896;-50
2022/03/24 11:13:51;;;;;;;8.70;6.78;;;;;;;10.06;56.31;101157.66;4971861;28;102132;-49
2022/03/24 11:16:20;;;;;;;8.60;6.30;;;;;;;10.07;56.05;101157.41;4973049;28;102141;-50
2022/03/24 11:18:58;;;;;;;;;;;;;;;10.07;56.05;101148.44;4985830;28;102531;-50
2022/03/24 11:21:32;;;;;;;10.32;7.53;;;;;;;10.06;56.08;101141.34;4983059;28;103873;-50
2022/03/24 11:24:01;;;;;;;12.80;6.78;;;;;;;10.06;55.29;101144.91;4985069;28;102003;-50
2022/03/24 11:26:28;;;;;;;11.48;6.90;;;;;;;10.07;55.13;101145.72;4971595;28;102099;-49
2022/03/24 11:28:57;;;;;;;9.57;6.43;;;;;;;10.05;55.13;101148.66;4977261;28;102294;-50
2022/03/24 11:31:28;;;;;;;12.30;5.93;;;;;;;10.06;55.00;101138.63;4970237;28;103879;-50
2022/03/24 11:34:00;;;;;;;8.18;6.18;;;;;;;10.05;54.16;101145.97;4985556;28;101973;-50
2022/03/24 11:36:30;;;;;;;10.02;5.72;;;;;;;10.05;54.84;101128.81;4984569;28;102374;-51
2022/03/24 11:38:58;;;;;;;11.40;6.28;;;;;;;10.04;53.93;101125.28;4977344;28;102979;-50